createdAt,value
2022-10-31T00:01:19.200Z,65.16
2022-10-31T00:03:46.653Z,65.10
2022-10-31T00:06:13.593Z,65.08
2022-10-31T00:08:40.564Z,65.21
2022-10-31T00:11:11.549Z,65.18
2022-10-31T00:13:38.678Z,65.31
2022-10-31T00:16:06.157Z,65.21
2022-10-31T00:18:33.058Z,65.18
2022-10-31T00:21:04.587Z,65.29
2022-10-31T00:23:31.544Z,65.45
2022-10-31T00:26:03.087Z,65.33
2022-10-31T00:28:31.742Z,65.38
2022-10-31T00:31:07.389Z,65.33
2022-10-31T00:33:35.932Z,65.35
2022-10-31T00:36:02.859Z,65.43
2022-10-31T00:38:30.094Z,65.52
2022-10-31T00:40:56.981Z,65.56
2022-10-31T00:43:24.735Z,65.59
2022-10-31T00:45:52.112Z,65.57
2022-10-31T00:48:18.936Z,65.69
2022-10-31T00:50:46.386Z,65.53
2022-10-31T00:53:13.253Z,65.55
2022-10-31T00:55:40.145Z,65.67
2022-10-31T00:58:07.132Z,65.69
2022-10-31T01:00:34.182Z,65.74
2022-10-31T01:03:01.333Z,65.83
2022-10-31T01:05:28.610Z,65.82
2022-10-31T01:07:55.510Z,65.88
2022-10-31T01:10:22.688Z,65.80
2022-10-31T01:12:50.410Z,65.91
2022-10-31T01:15:22.585Z,65.94
2022-10-31T01:17:50.092Z,65.86
2022-10-31T01:20:18.573Z,65.90
2022-10-31T01:22:45.778Z,66.00
2022-10-31T01:25:12.805Z,65.90
2022-10-31T01:27:39.748Z,66.09
2022-10-31T01:30:07.152Z,66.13
2022-10-31T01:32:34.037Z,66.13
2022-10-31T01:35:00.954Z,66.19
2022-10-31T01:37:27.845Z,66.24
2022-10-31T01:39:54.696Z,66.28
2022-10-31T01:42:23.668Z,66.08
2022-10-31T01:44:57.922Z,66.09
2022-10-31T01:47:36.357Z,66.17
2022-10-31T01:50:07.741Z,66.34
2022-10-31T01:52:40.808Z,66.23
2022-10-31T01:55:07.788Z,66.30
2022-10-31T01:57:37.316Z,66.24
2022-10-31T02:00:09.233Z,66.35
2022-10-31T02:02:36.900Z,66.25
2022-10-31T02:05:08.191Z,66.16
2022-10-31T02:07:47.112Z,66.35
2022-10-31T02:10:14.212Z,66.38
2022-10-31T02:12:42.387Z,66.33
2022-10-31T02:15:10.488Z,66.29
2022-10-31T02:17:37.345Z,66.40
2022-10-31T02:20:22.845Z,66.41
2022-10-31T02:23:08.010Z,66.33
2022-10-31T02:25:59.371Z,66.46
2022-10-31T02:28:44.643Z,66.50
2022-10-31T02:31:14.224Z,66.42
2022-10-31T02:33:48.209Z,66.51
2022-10-31T02:36:33.552Z,66.46
2022-10-31T02:39:32.386Z,66.41
2022-10-31T02:42:02.133Z,66.33
2022-10-31T02:44:41.052Z,66.47
2022-10-31T02:47:15.044Z,66.33
2022-10-31T02:49:46.763Z,66.46
2022-10-31T02:52:34.737Z,66.56
2022-10-31T02:55:26.486Z,66.43
2022-10-31T02:57:58.637Z,66.64
2022-10-31T03:00:26.151Z,66.51
2022-10-31T03:03:14.813Z,66.61
2022-10-31T03:06:10.280Z,66.63
2022-10-31T03:08:43.721Z,66.49
2022-10-31T03:11:11.236Z,66.62
2022-10-31T03:13:49.994Z,66.65
2022-10-31T03:16:46.806Z,66.66
2022-10-31T03:19:36.684Z,66.75
2022-10-31T03:22:05.999Z,66.67
2022-10-31T03:24:37.027Z,66.78
2022-10-31T03:27:06.819Z,66.75
2022-10-31T03:29:38.132Z,66.84
2022-10-31T03:32:11.072Z,66.65
2022-10-31T03:34:41.123Z,66.76
2022-10-31T03:37:12.080Z,66.90
2022-10-31T03:39:42.125Z,66.76
2022-10-31T03:42:27.129Z,66.64
2022-10-31T03:45:20.038Z,66.85
2022-10-31T03:47:47.005Z,66.86
2022-10-31T03:50:17.074Z,67.05
2022-10-31T03:52:55.277Z,66.99
2022-10-31T03:55:53.869Z,66.85
2022-10-31T03:58:27.188Z,66.86
2022-10-31T04:00:57.016Z,66.82
2022-10-31T04:03:28.001Z,66.89
2022-10-31T04:05:58.392Z,66.94
2022-10-31T04:08:29.689Z,66.94
2022-10-31T04:10:59.025Z,66.93
2022-10-31T04:13:30.333Z,66.96
2022-10-31T04:15:57.714Z,66.99
2022-10-31T04:18:25.394Z,66.85
2022-10-31T04:21:05.326Z,67.03
2022-10-31T04:23:33.542Z,66.63
2022-10-31T04:26:00.473Z,66.90
2022-10-31T04:28:27.449Z,67.06
2022-10-31T04:30:54.630Z,66.84
2022-10-31T04:33:21.735Z,67.00
2022-10-31T04:35:48.628Z,66.99
2022-10-31T04:38:15.554Z,66.93
2022-10-31T04:40:42.426Z,66.96
2022-10-31T04:43:09.395Z,66.89
2022-10-31T04:45:36.243Z,67.08
2022-10-31T04:48:03.364Z,67.11
2022-10-31T04:50:30.564Z,66.98
2022-10-31T04:52:57.507Z,67.16
2022-10-31T04:55:24.339Z,66.98
2022-10-31T04:57:52.045Z,67.16
2022-10-31T05:00:21.180Z,67.06
2022-10-31T05:02:49.424Z,67.02
2022-10-31T05:05:17.802Z,67.07
2022-10-31T05:07:46.793Z,66.96
2022-10-31T05:10:15.840Z,67.01
2022-10-31T05:12:50.969Z,67.05
2022-10-31T05:15:19.159Z,66.90
2022-10-31T05:17:46.270Z,66.92
2022-10-31T05:20:15.235Z,67.14
2022-10-31T05:22:50.505Z,67.08
2022-10-31T05:25:19.280Z,67.11
2022-10-31T05:27:48.209Z,67.04
2022-10-31T05:30:18.032Z,67.21
2022-10-31T05:32:47.127Z,67.04
2022-10-31T05:35:16.871Z,66.98
2022-10-31T05:37:43.849Z,66.99
2022-10-31T05:40:13.428Z,66.86
2022-10-31T05:42:41.695Z,67.02
2022-10-31T05:45:13.559Z,67.14
2022-10-31T05:47:40.413Z,66.98
2022-10-31T05:50:08.429Z,67.10
2022-10-31T05:52:35.329Z,67.19
2022-10-31T05:55:02.300Z,67.07
2022-10-31T05:57:30.321Z,67.07
2022-10-31T05:59:57.162Z,67.12
2022-10-31T06:02:24.013Z,67.30
2022-10-31T06:04:51.037Z,67.55
2022-10-31T06:07:18.027Z,67.71
2022-10-31T06:09:44.901Z,67.82
2022-10-31T06:12:11.785Z,67.97
2022-10-31T06:14:38.674Z,67.91
2022-10-31T06:17:05.535Z,68.02
2022-10-31T06:19:32.417Z,67.84
2022-10-31T06:21:59.237Z,67.85
2022-10-31T06:24:26.103Z,67.79
2022-10-31T06:26:52.995Z,67.79
2022-10-31T06:29:19.965Z,67.83
2022-10-31T06:31:46.787Z,67.79
2022-10-31T06:34:13.661Z,67.56
2022-10-31T06:36:40.509Z,67.57
2022-10-31T06:39:07.511Z,67.63
2022-10-31T06:41:34.411Z,67.69
2022-10-31T06:44:04.991Z,67.53
2022-10-31T06:46:35.263Z,67.44
2022-10-31T06:49:02.136Z,67.33
2022-10-31T06:51:28.997Z,67.26
2022-10-31T06:53:55.872Z,67.44
2022-10-31T06:56:22.751Z,67.46
2022-10-31T06:58:49.610Z,67.51
2022-10-31T07:01:16.638Z,67.33
2022-10-31T07:03:43.686Z,67.35
2022-10-31T07:06:10.621Z,67.38
2022-10-31T07:08:37.645Z,67.21
2022-10-31T07:11:04.557Z,67.25
2022-10-31T07:13:31.447Z,67.21
2022-10-31T07:16:03.743Z,67.27
2022-10-31T07:18:31.094Z,67.39
2022-10-31T07:20:58.112Z,67.17
2022-10-31T07:23:25.045Z,67.32
2022-10-31T07:25:57.418Z,67.30
2022-10-31T07:28:24.663Z,67.02
2022-10-31T07:30:53.252Z,67.10
2022-10-31T07:33:20.542Z,67.47
2022-10-31T07:35:47.666Z,67.46
2022-10-31T07:38:15.825Z,67.59
2022-10-31T07:40:43.579Z,67.77
2022-10-31T07:43:14.590Z,67.70
2022-10-31T07:45:41.976Z,67.70
2022-10-31T07:48:08.907Z,67.85
2022-10-31T07:50:36.179Z,68.16
2022-10-31T07:53:09.131Z,68.03
2022-10-31T07:55:36.720Z,68.09
2022-10-31T07:58:06.354Z,68.18
2022-10-31T08:00:35.972Z,68.18
2022-10-31T08:03:08.594Z,68.30
2022-10-31T08:05:36.736Z,68.37
2022-10-31T08:08:05.189Z,68.22
2022-10-31T08:10:32.857Z,68.05
2022-10-31T08:13:09.215Z,68.22
2022-10-31T08:15:39.257Z,68.08
2022-10-31T08:18:07.210Z,68.27
2022-10-31T08:20:34.653Z,68.34
2022-10-31T08:23:04.395Z,68.29
2022-10-31T08:25:37.199Z,68.33
2022-10-31T08:28:06.641Z,68.39
2022-10-31T08:30:36.133Z,68.42
2022-10-31T08:33:15.241Z,68.49
2022-10-31T08:35:42.772Z,68.47
2022-10-31T08:38:12.085Z,68.53
2022-10-31T08:40:39.583Z,68.71
2022-10-31T08:43:11.829Z,68.46
2022-10-31T08:45:39.271Z,68.68
2022-10-31T08:48:10.400Z,68.47
2022-10-31T08:50:37.969Z,68.56
2022-10-31T08:53:19.311Z,68.67
2022-10-31T08:55:47.666Z,68.28
2022-10-31T08:58:20.104Z,68.37
2022-10-31T09:00:49.319Z,68.33
2022-10-31T09:03:20.671Z,68.28
2022-10-31T09:05:48.145Z,68.13
2022-10-31T09:08:16.995Z,68.26
2022-10-31T09:10:45.462Z,67.99
2022-10-31T09:13:21.217Z,68.11
2022-10-31T09:15:50.160Z,68.09
2022-10-31T09:18:20.086Z,68.28
2022-10-31T09:20:48.860Z,68.00
2022-10-31T09:23:21.456Z,68.02
2022-10-31T09:25:50.889Z,67.78
2022-10-31T09:28:21.727Z,68.11
2022-10-31T09:30:50.666Z,67.72
2022-10-31T09:33:18.178Z,67.83
2022-10-31T09:35:45.290Z,68.00
2022-10-31T09:38:16.354Z,67.85
2022-10-31T09:41:03.705Z,67.86
2022-10-31T09:43:39.618Z,67.75
2022-10-31T09:46:16.679Z,67.64
2022-10-31T09:49:08.027Z,67.97
2022-10-31T09:51:53.044Z,67.74
2022-10-31T09:54:41.040Z,67.65
2022-10-31T09:57:14.366Z,67.65
2022-10-31T09:59:43.199Z,67.82
2022-10-31T10:02:25.833Z,67.68
2022-10-31T10:05:03.331Z,67.63
2022-10-31T10:07:50.922Z,67.67
2022-10-31T10:10:59.393Z,67.73
2022-10-31T10:13:32.641Z,67.57
2022-10-31T10:16:13.988Z,67.87
2022-10-31T10:18:55.783Z,67.78
2022-10-31T10:21:31.554Z,67.70
2022-10-31T10:24:19.975Z,68.21
2022-10-31T10:27:05.843Z,68.31
2022-10-31T10:29:43.989Z,68.40
2022-10-31T10:32:19.191Z,68.58
2022-10-31T10:34:55.069Z,67.72
2022-10-31T10:37:29.540Z,68.49
2022-10-31T10:40:07.765Z,68.40
2022-10-31T10:42:54.660Z,68.41
2022-10-31T10:45:40.082Z,68.53
2022-10-31T10:48:11.651Z,68.56
2022-10-31T10:50:47.987Z,68.57
2022-10-31T10:53:36.902Z,68.67
2022-10-31T10:56:10.435Z,68.87
2022-10-31T10:58:38.662Z,68.87
2022-10-31T11:04:04.307Z,68.67
2022-10-31T11:06:31.433Z,68.72
2022-10-31T11:08:58.418Z,68.57
2022-10-31T11:11:29.424Z,68.41
2022-10-31T11:14:04.593Z,68.47
2022-10-31T11:16:41.301Z,68.40
2022-10-31T11:19:08.810Z,68.73
2022-10-31T11:21:36.078Z,68.88
2022-10-31T11:24:12.913Z,68.94
2022-10-31T11:26:41.526Z,68.88
2022-10-31T11:29:27.496Z,68.84
2022-10-31T11:31:56.481Z,68.94
2022-10-31T11:34:37.971Z,69.09
2022-10-31T11:37:19.578Z,69.06
2022-10-31T11:39:54.609Z,68.93
2022-10-31T11:42:28.950Z,69.03
2022-10-31T11:44:57.184Z,68.85
2022-10-31T11:47:30.040Z,69.16
2022-10-31T11:49:58.993Z,68.83
2022-10-31T11:52:29.083Z,68.86
2022-10-31T11:54:57.117Z,68.88
2022-10-31T11:57:28.297Z,68.86
2022-10-31T11:59:56.243Z,69.09
2022-10-31T12:02:23.720Z,68.97
2022-10-31T12:05:14.498Z,68.86
2022-10-31T12:07:41.693Z,69.04
2022-10-31T12:10:13.424Z,68.81
2022-10-31T12:13:12.679Z,68.95
2022-10-31T12:15:44.087Z,68.90
2022-10-31T12:18:32.976Z,68.89
2022-10-31T12:21:34.278Z,68.97
2022-10-31T12:24:07.655Z,68.97
2022-10-31T12:27:17.802Z,69.07
2022-10-31T12:29:50.847Z,69.01
2022-10-31T12:32:45.677Z,68.80
2022-10-31T12:35:29.241Z,67.86
2022-10-31T12:38:14.903Z,68.45
2022-10-31T12:41:00.580Z,68.66
2022-10-31T12:44:12.073Z,68.35
2022-10-31T12:46:56.577Z,68.41
2022-10-31T12:49:59.706Z,68.58
2022-10-31T12:52:53.788Z,68.64
2022-10-31T12:55:42.302Z,68.74
2022-10-31T12:58:23.004Z,68.79
2022-10-31T13:00:59.893Z,68.80
2022-10-31T13:03:35.228Z,68.61
2022-10-31T13:06:10.433Z,68.58
2022-10-31T13:08:44.216Z,68.73
2022-10-31T13:11:21.653Z,68.66
2022-10-31T13:13:57.535Z,68.76
2022-10-31T13:16:31.984Z,68.77
2022-10-31T13:19:02.978Z,68.61
2022-10-31T13:21:40.572Z,68.70
2022-10-31T13:24:16.082Z,68.59
2022-10-31T13:26:51.778Z,68.56
2022-10-31T13:29:41.824Z,68.68
2022-10-31T13:32:09.430Z,68.78
2022-10-31T13:34:49.326Z,68.79
2022-10-31T13:37:16.277Z,68.54
2022-10-31T13:39:51.066Z,68.47
2022-10-31T13:42:54.119Z,68.50
2022-10-31T13:45:24.523Z,68.32
2022-10-31T13:48:26.166Z,68.30
2022-10-31T13:51:00.992Z,67.96
2022-10-31T13:53:44.210Z,67.84
2022-10-31T13:56:14.354Z,68.08
2022-10-31T13:58:55.931Z,68.13
2022-10-31T14:01:24.087Z,68.02
2022-10-31T14:04:13.906Z,68.25
2022-10-31T14:06:58.569Z,68.40
2022-10-31T14:09:52.147Z,68.39
2022-10-31T14:12:33.145Z,68.37
2022-10-31T14:15:05.130Z,68.23
2022-10-31T14:17:42.078Z,68.42
2022-10-31T14:20:12.157Z,68.13
2022-10-31T14:22:42.775Z,68.14
2022-10-31T14:25:36.607Z,68.14
2022-10-31T14:28:34.404Z,68.14
2022-10-31T14:31:02.863Z,68.22
2022-10-31T14:33:32.435Z,68.26
2022-10-31T14:36:15.979Z,67.81
2022-10-31T14:38:57.614Z,67.71
2022-10-31T14:41:50.763Z,67.66
2022-10-31T14:44:43.237Z,67.71
2022-10-31T14:47:13.112Z,67.93
2022-10-31T14:49:58.475Z,67.84
2022-10-31T14:52:25.855Z,67.79
2022-10-31T14:54:56.271Z,67.77
2022-10-31T14:57:48.387Z,67.77
2022-10-31T15:00:21.661Z,67.88
2022-10-31T15:02:53.294Z,67.86
2022-10-31T15:05:21.451Z,68.04
2022-10-31T15:07:59.100Z,68.06
2022-10-31T15:10:33.578Z,67.92
2022-10-31T15:13:22.807Z,68.29
2022-10-31T15:15:53.475Z,68.21
2022-10-31T15:18:27.768Z,68.17
2022-10-31T15:20:57.187Z,68.18
2022-10-31T15:23:30.209Z,68.04
2022-10-31T15:26:06.214Z,68.33
2022-10-31T15:28:33.263Z,68.00
2022-10-31T15:31:02.707Z,67.81
2022-10-31T15:33:38.331Z,67.68
2022-10-31T15:36:07.628Z,67.19
2022-10-31T15:38:34.696Z,67.23
2022-10-31T15:41:04.206Z,67.81
2022-10-31T15:43:38.065Z,67.63
2022-10-31T15:46:08.600Z,67.45
2022-10-31T15:48:36.543Z,67.43
2022-10-31T15:51:04.067Z,67.50
2022-10-31T15:53:39.658Z,67.27
2022-10-31T15:56:14.203Z,67.49
2022-10-31T15:58:45.825Z,67.50
2022-10-31T16:01:24.744Z,67.35
2022-10-31T16:04:20.988Z,66.83
2022-10-31T16:07:14.696Z,66.69
2022-10-31T16:09:53.583Z,66.53
2022-10-31T16:12:22.741Z,66.39
2022-10-31T16:14:55.207Z,66.33
2022-10-31T16:17:28.488Z,66.33
2022-10-31T16:20:04.846Z,66.08
2022-10-31T16:22:37.967Z,65.91
2022-10-31T16:25:39.382Z,65.86
2022-10-31T16:31:02.179Z,65.41
2022-10-31T16:33:34.855Z,65.34
2022-10-31T16:36:22.710Z,65.13
2022-10-31T16:38:52.017Z,64.40
2022-10-31T16:41:19.137Z,64.94
2022-10-31T16:43:51.477Z,64.64
2022-10-31T16:46:25.185Z,64.87
2022-10-31T16:48:52.866Z,64.93
2022-10-31T16:51:19.853Z,64.79
2022-10-31T16:53:47.116Z,64.27
2022-10-31T16:56:29.549Z,63.78
2022-10-31T16:58:57.173Z,64.17
2022-10-31T17:01:24.384Z,64.47
2022-10-31T17:03:51.440Z,64.26
2022-10-31T17:06:18.434Z,64.01
2022-10-31T17:08:45.548Z,64.40
2022-10-31T17:11:18.799Z,64.80
2022-10-31T17:13:45.870Z,64.35
2022-10-31T17:16:15.494Z,64.18
2022-10-31T17:18:44.171Z,64.08
2022-10-31T17:21:20.506Z,64.03
2022-10-31T17:23:47.721Z,63.77
2022-10-31T17:26:14.789Z,63.55
2022-10-31T17:28:43.177Z,63.50
2022-10-31T17:31:27.535Z,63.74
2022-10-31T17:34:02.191Z,63.63
2022-10-31T17:36:31.168Z,63.54
2022-10-31T17:38:58.527Z,63.69
2022-10-31T17:41:25.558Z,63.44
2022-10-31T17:44:00.691Z,63.32
2022-10-31T17:46:29.042Z,63.39
2022-10-31T17:48:56.286Z,63.21
2022-10-31T17:51:23.620Z,63.22
2022-10-31T17:53:50.902Z,62.83
2022-10-31T17:56:17.898Z,63.01
2022-10-31T17:58:45.049Z,62.95
2022-10-31T18:01:17.019Z,62.97
2022-10-31T18:03:44.841Z,62.90
2022-10-31T18:06:14.753Z,62.88
2022-10-31T18:08:42.253Z,62.79
2022-10-31T18:11:15.097Z,62.44
2022-10-31T18:16:13.509Z,62.28
2022-10-31T18:18:41.465Z,62.11
2022-10-31T18:21:09.234Z,61.90
2022-10-31T18:23:36.390Z,61.62
2022-10-31T18:26:04.271Z,61.96
2022-10-31T18:28:31.312Z,61.65
2022-10-31T18:31:01.660Z,61.74
2022-10-31T18:33:29.208Z,61.87
2022-10-31T18:35:56.712Z,61.49
2022-10-31T18:38:23.973Z,61.82
2022-10-31T18:40:52.202Z,61.51
2022-10-31T18:43:19.288Z,61.45
2022-10-31T18:45:48.788Z,61.66
2022-10-31T18:48:18.753Z,61.66
2022-10-31T18:50:46.435Z,61.78
2022-10-31T18:53:13.376Z,61.74
2022-10-31T18:55:45.389Z,61.94
2022-10-31T18:58:16.811Z,61.77
2022-10-31T19:00:43.858Z,62.04
2022-10-31T19:03:10.931Z,61.69
2022-10-31T19:05:38.743Z,61.80
2022-10-31T19:08:09.072Z,61.82
2022-10-31T19:10:40.642Z,61.98
2022-10-31T19:13:08.207Z,62.23
2022-10-31T19:15:36.120Z,61.96
2022-10-31T19:18:04.923Z,61.70
2022-10-31T19:20:32.394Z,61.99
2022-10-31T19:22:59.917Z,61.69
2022-10-31T19:25:28.161Z,61.75
2022-10-31T19:27:55.580Z,61.58
2022-10-31T19:30:24.184Z,61.57
2022-10-31T19:32:56.401Z,61.68
2022-10-31T19:35:23.934Z,61.84
2022-10-31T19:37:51.536Z,61.72
2022-10-31T19:40:20.323Z,61.67
2022-10-31T19:42:47.682Z,61.42
2022-10-31T19:45:15.253Z,61.68
2022-10-31T19:47:43.284Z,61.55
2022-10-31T19:50:12.238Z,61.60
2022-10-31T19:52:43.671Z,61.57
2022-10-31T19:55:12.985Z,61.91
2022-10-31T19:58:00.807Z,61.48
2022-10-31T20:00:29.692Z,61.27
2022-10-31T20:02:57.205Z,61.67
2022-10-31T20:05:24.873Z,61.45
2022-10-31T20:07:54.662Z,61.39
2022-10-31T20:10:22.849Z,61.37
2022-10-31T20:12:51.489Z,61.74
2022-10-31T20:15:19.892Z,61.80
2022-10-31T20:17:47.358Z,61.63
2022-10-31T20:20:16.390Z,62.02
2022-10-31T20:22:43.840Z,61.76
2022-10-31T20:25:14.741Z,61.77
2022-10-31T20:27:42.040Z,61.78
2022-10-31T20:30:12.225Z,61.68
2022-10-31T20:32:49.012Z,61.64
2022-10-31T20:35:20.790Z,61.94
2022-10-31T20:37:53.494Z,62.19
2022-10-31T20:40:21.004Z,61.95
2022-10-31T20:42:48.266Z,61.95
2022-10-31T20:45:20.269Z,62.00
2022-10-31T20:47:47.482Z,62.02
2022-10-31T20:50:16.703Z,62.09
2022-10-31T20:52:45.288Z,61.79
2022-10-31T20:55:16.622Z,61.86
2022-10-31T20:57:44.005Z,61.81
2022-10-31T21:00:12.473Z,61.75
2022-10-31T21:02:45.316Z,61.83
2022-10-31T21:05:16.102Z,62.07
2022-10-31T21:07:55.659Z,61.78
2022-10-31T21:10:23.879Z,61.77
2022-10-31T21:12:56.701Z,61.91
2022-10-31T21:15:24.923Z,61.87
2022-10-31T21:17:52.594Z,61.78
2022-10-31T21:20:20.153Z,61.67
2022-10-31T21:22:48.561Z,61.45
2022-10-31T21:25:17.422Z,61.82
2022-10-31T21:27:47.498Z,61.82
2022-10-31T21:30:16.922Z,61.52
2022-10-31T21:32:44.540Z,61.86
2022-10-31T21:35:11.923Z,61.91
2022-10-31T21:37:39.392Z,61.89
2022-10-31T21:40:08.360Z,61.99
2022-10-31T21:42:37.306Z,61.98
2022-10-31T21:45:06.875Z,62.19
2022-10-31T21:47:34.367Z,62.06
2022-10-31T21:50:06.245Z,62.17
2022-10-31T21:52:33.713Z,62.31
2022-10-31T21:55:01.960Z,62.30
2022-10-31T21:57:30.023Z,62.71
2022-10-31T21:59:57.320Z,62.32
2022-10-31T22:02:24.574Z,62.44
2022-10-31T22:04:52.304Z,62.42
2022-10-31T22:07:20.747Z,62.61
2022-10-31T22:09:49.952Z,62.49
2022-10-31T22:12:19.766Z,62.72
2022-10-31T22:14:49.949Z,62.83
2022-10-31T22:17:22.597Z,63.13
2022-10-31T22:19:49.968Z,63.02
2022-10-31T22:22:17.086Z,63.28
2022-10-31T22:24:48.147Z,63.13
2022-10-31T22:27:15.330Z,63.44
2022-10-31T22:29:42.296Z,63.44
2022-10-31T22:32:10.295Z,63.29
2022-10-31T22:34:38.765Z,63.57
2022-10-31T22:37:06.654Z,63.57
2022-10-31T22:39:36.425Z,63.59
2022-10-31T22:42:04.123Z,63.73
2022-10-31T22:44:31.338Z,63.74
2022-10-31T22:46:58.592Z,63.84
2022-10-31T22:49:25.584Z,63.76
2022-10-31T22:51:52.640Z,64.01
2022-10-31T22:54:20.084Z,63.91
2022-10-31T22:56:47.094Z,64.14
2022-10-31T22:59:15.716Z,64.14
2022-10-31T23:01:46.038Z,64.00
2022-10-31T23:04:16.611Z,64.27
2022-10-31T23:06:45.184Z,64.24
2022-10-31T23:09:15.185Z,64.30
2022-10-31T23:11:42.306Z,64.36
2022-10-31T23:14:18.944Z,64.47
2022-10-31T23:16:55.770Z,64.47
2022-10-31T23:19:30.436Z,64.55
2022-10-31T23:22:03.355Z,64.70
2022-10-31T23:24:37.898Z,64.85
2022-10-31T23:27:10.239Z,64.64
2022-10-31T23:29:47.736Z,64.77
2022-10-31T23:32:21.131Z,64.80
2022-10-31T23:34:49.945Z,65.00
2022-10-31T23:37:18.552Z,64.89
2022-10-31T23:39:45.850Z,65.19
2022-10-31T23:42:14.145Z,64.96
2022-10-31T23:44:41.048Z,65.15
2022-10-31T23:47:08.681Z,64.98
2022-10-31T23:49:35.858Z,65.16
2022-10-31T23:52:03.930Z,65.22
2022-10-31T23:54:31.338Z,65.37
2022-10-31T23:56:59.111Z,65.40
2022-10-31T23:59:26.526Z,65.34
